createdAt,value
2022-08-17T00:03:42.176Z,15.40
2022-08-17T00:07:11.140Z,16.60
2022-08-17T00:10:39.961Z,17.00
2022-08-17T00:14:08.767Z,16.30
2022-08-17T00:17:37.553Z,16.80
2022-08-17T00:21:10.269Z,16.60
2022-08-17T00:24:39.430Z,15.10
2022-08-17T00:28:07.961Z,16.00
2022-08-17T00:31:36.833Z,16.80
2022-08-17T00:35:05.348Z,16.00
2022-08-17T00:38:33.960Z,14.70
2022-08-17T00:42:02.469Z,14.50
2022-08-17T00:45:30.981Z,15.40
2022-08-17T00:48:59.560Z,13.80
2022-08-17T00:52:31.200Z,14.90
2022-08-17T00:56:00.315Z,15.30
2022-08-17T00:59:28.596Z,15.90
2022-08-17T01:02:57.400Z,14.70
2022-08-17T01:06:26.049Z,16.80
2022-08-17T01:09:54.798Z,15.50
2022-08-17T01:13:23.423Z,16.70
2022-08-17T01:16:52.139Z,17.50
2022-08-17T01:20:19.596Z,16.60
2022-08-17T01:23:48.237Z,17.80
2022-08-17T01:27:18.466Z,17.10
2022-08-17T01:30:58.507Z,18.10
2022-08-17T01:34:36.822Z,18.70
2022-08-17T01:38:12.137Z,16.70
2022-08-17T01:41:40.528Z,17.50
2022-08-17T01:45:09.097Z,17.20
2022-08-17T01:48:37.676Z,20.00
2022-08-17T01:52:09.029Z,20.00
2022-08-17T01:55:37.597Z,18.30
2022-08-17T01:59:06.152Z,18.70
2022-08-17T02:02:34.787Z,18.70
2022-08-17T02:06:03.377Z,18.40
2022-08-17T02:09:34.073Z,18.70
2022-08-17T02:13:02.780Z,18.20
2022-08-17T02:16:37.853Z,18.60
2022-08-17T02:20:06.824Z,18.80
2022-08-17T02:23:35.309Z,18.50
2022-08-17T02:27:03.945Z,19.60
2022-08-17T02:31:00.363Z,17.60
2022-08-17T02:34:21.300Z,17.90
2022-08-17T02:37:51.817Z,16.60
2022-08-17T02:41:17.027Z,19.20
2022-08-17T02:44:45.724Z,19.60
2022-08-17T02:48:14.363Z,17.90
2022-08-17T02:51:59.399Z,15.80
2022-08-17T02:55:28.027Z,17.60
2022-08-17T02:58:49.173Z,17.40
2022-08-17T03:02:10.525Z,17.80
2022-08-17T03:05:39.260Z,16.20
2022-08-17T03:09:00.776Z,16.00
2022-08-17T03:12:21.138Z,17.90
2022-08-17T03:15:33.133Z,18.00
2022-08-17T03:19:01.729Z,18.50
2022-08-17T03:22:35.348Z,18.70
2022-08-17T03:25:49.671Z,18.60
2022-08-17T03:29:19.774Z,18.00
2022-08-17T03:32:54.357Z,17.70
2022-08-17T03:36:22.977Z,19.10
2022-08-17T03:39:51.665Z,18.50
2022-08-17T03:43:20.319Z,21.50
2022-08-17T03:46:47.015Z,20.20
2022-08-17T03:50:04.764Z,18.60
2022-08-17T03:53:31.637Z,19.30
2022-08-17T03:57:03.130Z,17.20
2022-08-17T04:00:24.345Z,17.30
2022-08-17T04:03:50.483Z,19.10
2022-08-17T04:07:19.188Z,16.50
2022-08-17T04:10:47.979Z,16.80
2022-08-17T04:14:16.457Z,17.40
2022-08-17T04:17:45.087Z,18.60
2022-08-17T04:21:13.588Z,18.90
2022-08-17T04:24:42.127Z,18.20
2022-08-17T04:28:15.889Z,18.70
2022-08-17T04:31:45.684Z,16.40
2022-08-17T04:34:37.198Z,19.00
2022-08-17T04:37:08.811Z,20.20
2022-08-17T04:40:35.961Z,19.00
2022-08-17T04:43:47.446Z,19.70
2022-08-17T04:47:16.737Z,19.50
2022-08-17T04:50:45.525Z,20.90
2022-08-17T04:54:14.121Z,20.00
2022-08-17T04:57:45.073Z,21.20
2022-08-17T05:01:14.337Z,21.70
2022-08-17T05:04:42.967Z,21.60
2022-08-17T05:08:11.626Z,21.40
2022-08-17T05:11:40.398Z,22.80
2022-08-17T05:15:13.764Z,23.40
2022-08-17T05:18:42.508Z,22.20
2022-08-17T05:22:12.299Z,25.00
2022-08-17T05:25:42.747Z,23.90
2022-08-17T05:29:17.136Z,23.20
2022-08-17T05:32:49.449Z,22.80
2022-08-17T05:36:42.985Z,23.70
2022-08-17T05:40:15.311Z,23.00
2022-08-17T05:43:47.933Z,25.50
2022-08-17T05:47:17.978Z,25.50
2022-08-17T05:50:47.464Z,22.10
2022-08-17T05:54:31.566Z,24.40
2022-08-17T05:58:06.743Z,23.20
2022-08-17T06:01:45.563Z,20.40
2022-08-17T06:05:17.441Z,22.90
2022-08-17T06:09:04.521Z,24.20
2022-08-17T06:12:49.910Z,21.60
2022-08-17T06:16:31.103Z,22.50
2022-08-17T06:20:02.746Z,20.30
2022-08-17T06:23:31.373Z,21.10
2022-08-17T06:27:00.406Z,22.90
2022-08-17T06:30:35.744Z,20.50
2022-08-17T06:34:20.343Z,20.70
2022-08-17T06:37:47.318Z,21.40
2022-08-17T06:41:16.443Z,21.10
2022-08-17T06:44:43.198Z,19.20
2022-08-17T06:48:12.045Z,19.00
2022-08-17T06:51:40.906Z,17.80
2022-08-17T06:55:07.902Z,18.90
2022-08-17T06:58:46.768Z,18.70
2022-08-17T07:02:15.535Z,18.80
2022-08-17T07:05:44.004Z,18.80
2022-08-17T07:09:24.634Z,19.40
2022-08-17T07:12:56.471Z,17.00
2022-08-17T07:16:24.967Z,17.40
2022-08-17T07:19:53.459Z,17.40
2022-08-17T07:23:24.037Z,16.60
2022-08-17T07:26:52.598Z,17.30
2022-08-17T07:30:24.346Z,15.60
2022-08-17T07:33:53.115Z,14.60
2022-08-17T07:37:10.663Z,16.10
2022-08-17T07:40:39.336Z,15.10
2022-08-17T07:44:19.889Z,13.40
2022-08-17T07:47:46.620Z,14.20
2022-08-17T07:51:15.511Z,14.00
2022-08-17T07:54:47.085Z,14.20
2022-08-17T07:58:16.134Z,13.30
2022-08-17T08:01:45.383Z,13.10
2022-08-17T08:05:25.068Z,12.70
2022-08-17T08:09:08.742Z,14.10
2022-08-17T08:12:19.336Z,14.10
2022-08-17T08:15:54.071Z,15.70
2022-08-17T08:19:23.405Z,13.90
2022-08-17T08:22:51.948Z,14.50
2022-08-17T08:26:19.028Z,14.90
2022-08-17T08:29:56.993Z,14.20
2022-08-17T08:33:28.342Z,14.00
2022-08-17T08:37:16.432Z,14.40
2022-08-17T08:41:01.014Z,12.60
2022-08-17T08:45:01.151Z,12.20
2022-08-17T08:48:56.590Z,12.50
2022-08-17T08:52:18.604Z,11.30
2022-08-17T08:55:50.158Z,12.10
2022-08-17T08:59:30.766Z,10.60
2022-08-17T09:03:05.035Z,11.80
2022-08-17T09:06:39.072Z,12.60
2022-08-17T09:10:08.750Z,11.70
2022-08-17T09:13:28.983Z,11.90
2022-08-17T09:16:56.428Z,12.50
2022-08-17T09:20:37.078Z,11.40
2022-08-17T09:24:23.734Z,12.30
2022-08-17T09:27:42.648Z,11.50
2022-08-17T09:31:09.781Z,11.40
2022-08-17T09:34:37.457Z,11.60
2022-08-17T09:37:53.212Z,10.90
2022-08-17T09:41:22.032Z,10.80
2022-08-17T09:45:06.760Z,10.80
2022-08-17T09:48:44.722Z,10.90
2022-08-17T09:52:14.523Z,10.80
2022-08-17T09:55:47.042Z,9.60
2022-08-17T09:59:16.308Z,9.20
2022-08-17T10:03:02.177Z,8.70
2022-08-17T10:06:37.448Z,9.20
2022-08-17T10:10:14.337Z,9.30
2022-08-17T10:13:53.719Z,9.70
2022-08-17T10:17:23.615Z,9.90
2022-08-17T10:21:11.796Z,10.20
2022-08-17T10:24:39.473Z,11.60
2022-08-17T10:28:30.040Z,11.70
2022-08-17T10:31:51.355Z,11.10
2022-08-17T10:35:34.884Z,10.20
2022-08-17T10:39:03.883Z,10.00
2022-08-17T10:42:30.375Z,10.20
2022-08-17T10:46:09.496Z,9.90
2022-08-17T10:49:48.199Z,9.80
2022-08-17T10:53:23.727Z,9.90
2022-08-17T10:56:54.611Z,10.20
2022-08-17T11:00:27.510Z,8.50
2022-08-17T11:03:52.668Z,7.90
2022-08-17T11:07:07.903Z,8.30
2022-08-17T11:10:37.162Z,8.50
2022-08-17T11:14:06.636Z,10.10
2022-08-17T11:17:50.740Z,8.90
2022-08-17T11:21:29.167Z,9.10
2022-08-17T11:24:58.572Z,9.50
2022-08-17T11:28:29.166Z,9.70
2022-08-17T11:31:59.969Z,9.70
2022-08-17T11:35:29.547Z,10.30
2022-08-17T11:38:53.392Z,8.60
2022-08-17T11:42:11.825Z,8.70
2022-08-17T11:45:44.203Z,9.20
2022-08-17T11:49:04.085Z,8.30
2022-08-17T11:52:46.013Z,8.00
2022-08-17T11:56:19.899Z,8.40
2022-08-17T11:59:48.671Z,8.00
2022-08-17T12:03:17.725Z,9.00
2022-08-17T12:06:45.710Z,9.10
2022-08-17T12:10:14.881Z,9.50
2022-08-17T12:13:45.459Z,8.50
2022-08-17T12:17:14.587Z,8.50
2022-08-17T12:21:07.186Z,8.90
2022-08-17T12:24:51.451Z,8.40
2022-08-17T12:28:20.806Z,8.70
2022-08-17T12:31:56.424Z,8.90
2022-08-17T12:35:25.644Z,8.80
2022-08-17T12:38:57.242Z,8.40
2022-08-17T12:42:26.610Z,9.30
2022-08-17T12:46:13.347Z,8.70
2022-08-17T12:49:37.036Z,8.60
2022-08-17T12:53:05.790Z,8.00
2022-08-17T12:56:34.559Z,7.70
2022-08-17T13:00:04.029Z,6.90
2022-08-17T13:03:38.196Z,7.20
2022-08-17T13:07:08.407Z,7.60
2022-08-17T13:10:36.461Z,7.40
2022-08-17T13:14:08.838Z,7.40
2022-08-17T13:17:38.580Z,7.70
2022-08-17T13:21:07.998Z,7.50
2022-08-17T13:24:45.766Z,7.80
2022-08-17T13:28:14.901Z,8.30
2022-08-17T13:31:52.716Z,8.40
2022-08-17T13:35:29.674Z,7.70
2022-08-17T13:39:13.613Z,8.90
2022-08-17T13:42:50.584Z,9.10
2022-08-17T13:46:28.425Z,9.50
2022-08-17T13:49:58.871Z,8.30
2022-08-17T13:53:20.919Z,9.00
2022-08-17T13:56:50.025Z,9.70
2022-08-17T14:00:13.730Z,9.80
2022-08-17T14:03:44.307Z,8.80
2022-08-17T14:06:57.281Z,8.40
2022-08-17T14:10:25.925Z,9.40
2022-08-17T14:13:54.491Z,9.90
2022-08-17T14:17:23.064Z,8.70
2022-08-17T14:20:51.915Z,9.20
2022-08-17T14:24:19.307Z,9.10
2022-08-17T14:27:52.745Z,9.00
2022-08-17T14:31:22.237Z,8.90
2022-08-17T14:34:50.962Z,9.10
2022-08-17T14:38:20.281Z,8.10
2022-08-17T14:41:48.207Z,8.50
2022-08-17T14:45:00.010Z,8.50
2022-08-17T14:48:19.004Z,8.00
2022-08-17T14:51:44.041Z,8.70
2022-08-17T14:55:15.147Z,8.30
2022-08-17T14:58:26.814Z,6.00
2022-08-17T15:01:35.462Z,9.50
2022-08-17T15:05:04.167Z,9.00
2022-08-17T15:08:33.424Z,8.80
2022-08-17T15:12:02.139Z,8.80
2022-08-17T15:15:30.125Z,8.60
2022-08-17T15:19:00.296Z,9.50
2022-08-17T15:22:29.268Z,8.90
2022-08-17T15:25:59.814Z,8.90
2022-08-17T15:29:19.877Z,8.50
2022-08-17T15:32:54.134Z,8.60
2022-08-17T15:36:23.936Z,9.50
2022-08-17T15:39:53.102Z,8.90
2022-08-17T15:43:14.721Z,9.00
2022-08-17T15:46:43.343Z,8.80
2022-08-17T15:50:11.206Z,9.20
2022-08-17T15:53:40.296Z,8.70
2022-08-17T15:57:09.376Z,9.10
2022-08-17T16:00:49.407Z,8.30
2022-08-17T16:04:30.249Z,8.50
2022-08-17T16:07:45.434Z,8.70
2022-08-17T16:11:16.836Z,9.20
2022-08-17T16:14:45.497Z,9.10
2022-08-17T16:18:14.212Z,9.00
2022-08-17T16:21:45.594Z,9.00
2022-08-17T16:25:14.402Z,9.30
2022-08-17T16:28:43.613Z,9.20
2022-08-17T16:32:12.708Z,10.60
2022-08-17T16:35:41.477Z,9.80
2022-08-17T16:39:10.405Z,8.80
2022-08-17T16:42:39.424Z,9.00
2022-08-17T16:46:02.203Z,8.60
2022-08-17T16:49:36.815Z,9.30
2022-08-17T16:53:06.924Z,9.20
2022-08-17T16:56:35.985Z,9.20
2022-08-17T17:00:05.011Z,9.70
2022-08-17T17:03:33.962Z,9.50
2022-08-17T17:07:05.677Z,8.40
2022-08-17T17:10:34.728Z,8.70
2022-08-17T17:14:06.239Z,8.40
2022-08-17T17:17:44.690Z,8.40
2022-08-17T17:21:14.091Z,8.80
2022-08-17T17:24:45.902Z,10.40
2022-08-17T17:28:20.610Z,8.50
2022-08-17T17:31:58.832Z,10.20
2022-08-17T17:35:34.622Z,9.50
2022-08-17T17:39:03.787Z,9.10
2022-08-17T17:42:32.806Z,10.20
2022-08-17T17:46:26.687Z,8.70
2022-08-17T17:49:53.291Z,9.10
2022-08-17T17:53:22.523Z,9.60
2022-08-17T17:57:07.246Z,9.40
2022-08-17T18:00:15.934Z,12.00
2022-08-17T18:03:34.513Z,13.70
2022-08-17T18:06:33.491Z,10.70
2022-08-17T18:10:01.039Z,8.90
2022-08-17T18:13:30.914Z,9.80
2022-08-17T18:17:00.521Z,9.40
2022-08-17T18:20:40.935Z,10.30
2022-08-17T18:24:22.258Z,12.00
2022-08-17T18:27:53.982Z,11.50
2022-08-17T18:31:23.172Z,12.20
2022-08-17T18:35:04.545Z,12.50
2022-08-17T18:38:33.439Z,10.80
2022-08-17T18:42:02.639Z,11.50
2022-08-17T18:45:34.293Z,13.40
2022-08-17T18:49:00.670Z,11.80
2022-08-17T18:52:30.737Z,11.30
2022-08-17T18:56:01.160Z,13.20
2022-08-17T18:59:33.188Z,12.40
2022-08-17T19:02:54.192Z,11.70
2022-08-17T19:06:25.320Z,12.40
2022-08-17T19:10:00.669Z,11.80
2022-08-17T19:13:14.963Z,11.80
2022-08-17T19:16:14.222Z,11.00
2022-08-17T19:20:00.102Z,13.90
2022-08-17T19:23:19.419Z,13.90
2022-08-17T19:26:51.174Z,11.70
2022-08-17T19:30:14.311Z,12.60
2022-08-17T19:33:47.953Z,12.30
2022-08-17T19:37:21.358Z,12.90
2022-08-17T19:40:55.748Z,12.80
2022-08-17T19:44:29.025Z,14.50
2022-08-17T19:48:03.420Z,15.50
2022-08-17T19:51:32.132Z,14.50
2022-08-17T19:55:00.308Z,15.20
2022-08-17T19:58:27.691Z,14.80
2022-08-17T20:01:59.022Z,15.70
2022-08-17T20:05:44.249Z,15.00
2022-08-17T20:12:51.847Z,16.40
2022-08-17T20:16:20.935Z,16.10
2022-08-17T20:19:28.874Z,16.50
2022-08-17T20:23:00.538Z,17.00
2022-08-17T20:26:32.304Z,16.60
2022-08-17T20:30:06.186Z,14.80
2022-08-17T20:33:41.232Z,14.20
2022-08-17T20:36:59.206Z,13.70
2022-08-17T20:40:32.410Z,13.60
2022-08-17T20:44:06.409Z,12.80
2022-08-17T20:47:55.176Z,12.70
2022-08-17T20:51:33.056Z,12.80
2022-08-17T20:55:00.305Z,12.20
2022-08-17T20:58:30.918Z,12.50
2022-08-17T21:01:59.613Z,13.30
2022-08-17T21:05:07.498Z,13.80
2022-08-17T21:08:18.573Z,14.50
2022-08-17T21:12:03.205Z,14.10
2022-08-17T21:15:17.167Z,12.90
2022-08-17T21:18:55.410Z,13.60
2022-08-17T21:22:29.634Z,14.40
2022-08-17T21:25:42.976Z,15.70
2022-08-17T21:29:00.618Z,13.10
2022-08-17T21:32:34.116Z,13.80
2022-08-17T21:36:03.066Z,14.00
2022-08-17T21:39:16.141Z,12.60
2022-08-17T21:42:24.679Z,12.40
2022-08-17T21:46:02.517Z,14.00
2022-08-17T21:49:31.055Z,12.70
2022-08-17T21:53:06.526Z,12.80
2022-08-17T21:56:35.243Z,13.10
2022-08-17T22:00:03.863Z,14.00
2022-08-17T22:03:17.269Z,12.90
2022-08-17T22:06:57.912Z,13.30
2022-08-17T22:10:27.140Z,14.70
2022-08-17T22:14:00.657Z,13.10
2022-08-17T22:17:36.774Z,13.70
2022-08-17T22:20:29.460Z,13.30
2022-08-17T22:23:59.552Z,13.10
2022-08-17T22:27:22.176Z,13.60
2022-08-17T22:30:49.337Z,13.40
2022-08-17T22:34:17.907Z,13.20
2022-08-17T22:38:01.972Z,13.80
2022-08-17T22:41:30.519Z,14.40
2022-08-17T22:45:07.925Z,13.80
2022-08-17T22:48:36.512Z,15.30
2022-08-17T22:51:37.894Z,15.00
2022-08-17T22:55:09.377Z,14.30
2022-08-17T22:58:36.611Z,15.10
2022-08-17T23:02:05.123Z,14.80
2022-08-17T23:05:23.592Z,14.40
2022-08-17T23:08:04.836Z,13.40
2022-08-17T23:11:13.127Z,14.90
2022-08-17T23:14:01.354Z,14.50
2022-08-17T23:16:49.618Z,14.50
2022-08-17T23:20:04.257Z,14.70
2022-08-17T23:23:03.098Z,15.10
2022-08-17T23:26:11.633Z,15.30
2022-08-17T23:29:42.914Z,16.10
2022-08-17T23:33:11.624Z,16.30
2022-08-17T23:36:31.723Z,15.90
2022-08-17T23:40:00.752Z,16.10
2022-08-17T23:43:24.448Z,15.10
2022-08-17T23:46:54.330Z,16.60
2022-08-17T23:50:05.180Z,15.70
2022-08-17T23:53:13.560Z,16.20
2022-08-17T23:56:47.838Z,17.50
